YM Etdr — A8OS2 — position and weather

sailwx.info

Track history (hours):
 
Tides and Currents Weather Stations Pressure Air Temp Water Temp Dewpoint Dewpoint Depression Visibility Wind Speed Wind Dir Waves Ship Positions

YM Etdr

Last reported at 2018-Apr-23 19:37 UTC. Time now 2018-Apr-24 14:45 UTC.
Position N 22°53' E 117°05'.

Length 269 m; draft 10 m.

Type: Cargo ship. MMSI: 635961358.

Date/timePositionNaut miles runAvg speedWind from/ knotsBaromVisibWave heightAir tempDewpointWater temp
2018-Apr-23 19:37N 22°53' E 117°05'215.4
2018-Apr-23 19:30N 22°54' E 117°06'815.5
2018-Apr-23 18:58N 22°58' E 117°14'715.4
2018-Apr-23 18:29N 23°02' E 117°21'715.5
2018-Apr-23 18:00N 23°06' E 117°28'1015.6
2018-Apr-23 17:22N 23°11' E 117°37'615.3
2018-Apr-23 17:00N 23°13' E 117°43'815.7
2018-Apr-23 16:30N 23°17' E 117°50'816.5
2018-Apr-23 16:00N 23°21' E 117°58'1018.9
2018-Apr-23 15:30N 23°28' E 118°05'1019.0
2018-Apr-23 15:00N 23°32' E 118°14'919.1
2018-Apr-23 14:30N 23°38' E 118°22'1019.2
2018-Apr-23 13:59N 23°44' E 118°32'919.1
2018-Apr-23 13:30N 23°50' E 118°39'918.7
2018-Apr-23 13:00N 23°55' E 118°47'918.1
2018-Apr-23 12:29N 24°00' E 118°56'918.0
2018-Apr-23 11:58N 24°06' E 119°04'1119.2
2018-Apr-23 11:25N 24°12' E 119°14'15119.1
2018-Apr-23 03:30N 25°40' E 121°29'1020.1
2018-Apr-23 03:00N 25°45' E 121°39'78118.5
2018-Apr-21 08:51N 32°27' E 134°26'617.3
2018-Apr-21 08:31N 32°30' E 134°32'917.2
2018-Apr-21 08:01N 32°34' E 134°41'11418.9
2018-Apr-21 01:58N 33°27' E 136°42'6020.0
2018-Apr-20 22:58N 33°55' E 137°45'1020.0
2018-Apr-20 22:29N 33°59' E 137°56'919.9
2018-Apr-20 22:00N 34°04' E 138°06'1019.8
2018-Apr-20 21:29N 34°08' E 138°17'919.4
2018-Apr-20 21:00N 34°12' E 138°27'1019.0
2018-Apr-20 20:28N 34°17' E 138°38'918.6
2018-Apr-20 20:00N 34°22' E 138°47'918.6
2018-Apr-20 19:30N 34°27' E 138°56'918.5
2018-Apr-20 19:00N 34°30' E 139°07'918.2
2018-Apr-20 18:30N 34°35' E 139°16'1018.2
2018-Apr-20 17:58N 34°38' E 139°27'919.0
2018-Apr-20 17:31N 34°45' E 139°34'1020.5
2018-Apr-20 17:00N 34°55' E 139°38'1020.2
2018-Apr-20 16:30N 35°04' E 139°44'816.6
2018-Apr-20 16:00N 35°12' E 139°46'611.4
2018-Apr-20 15:30N 35°17' E 139°45'612.4
2018-Apr-20 15:01N 35°23' E 139°42'815.6
2018-Apr-20 14:30N 35°29' E 139°50'612.7
2018-Apr-20 14:00N 35°35' E 139°48'2 3.5
2018-Apr-20 13:27N 35°37' E 139°47'0 0.0
2018-Apr-20 12:58N 35°37' E 139°47'0 0.0
2018-Apr-20 12:19N 35°37' E 139°47'0 0.0
2018-Apr-20 11:58N 35°37' E 139°47'0 0.0
2018-Apr-20 11:28N 35°37' E 139°47'0 0.0
2018-Apr-20 10:58N 35°37' E 139°47'0 0.0
2018-Apr-20 10:28N 35°37' E 139°47'0 0.0
2018-Apr-20 09:58N 35°37' E 139°47'0 0.0
2018-Apr-20 09:28N 35°37' E 139°47'0 0.0
2018-Apr-20 08:58N 35°37' E 139°47'0 0.0
2018-Apr-20 08:28N 35°37' E 139°47'0 0.0
2018-Apr-20 07:58N 35°37' E 139°47'0 0.0
2018-Apr-20 07:28N 35°37' E 139°47'0 0.0
2018-Apr-20 06:58N 35°37' E 139°47'0 0.0
2018-Apr-20 06:25N 35°37' E 139°47'0 0.0
2018-Apr-20 05:58N 35°37' E 139°47'0 0.0
2018-Apr-20 05:28N 35°37' E 139°47'0 0.0
2018-Apr-20 04:58N 35°37' E 139°47'0 0.0
2018-Apr-20 04:28N 35°37' E 139°47'0 0.0
2018-Apr-20 03:52N 35°37' E 139°47'0 0.0
2018-Apr-20 03:28N 35°37' E 139°47'0 0.0
2018-Apr-20 02:58N 35°37' E 139°47'0 0.1
2018-Apr-20 02:28N 35°37' E 139°47'0 0.1
2018-Apr-20 01:58N 35°37' E 139°47'0 0.0
2018-Apr-20 01:28N 35°37' E 139°47'0 0.0
2018-Apr-20 00:58N 35°37' E 139°47'0 0.0
2018-Apr-20 00:28N 35°37' E 139°47'0 0.0
2018-Apr-19 23:58N 35°37' E 139°47'0 0.0
2018-Apr-19 23:25N 35°37' E 139°47'0 0.0
2018-Apr-19 22:55N 35°37' E 139°47'0 0.0
2018-Apr-19 22:30N 35°37' E 139°47'2 4.7
2018-Apr-19 22:00N 35°35' E 139°48'510.6
2018-Apr-19 21:30N 35°30' E 139°52'510.3
2018-Apr-19 21:00N 35°27' E 139°47'4 9.0
2018-Apr-19 20:30N 35°28' E 139°42'0 0.9
2018-Apr-19 19:58N 35°28' E 139°42'0 0.0
2018-Apr-19 19:28N 35°28' E 139°42'0 0.0
2018-Apr-19 18:58N 35°28' E 139°42'0 0.0
2018-Apr-19 18:28N 35°28' E 139°42'0 0.0
2018-Apr-19 17:58N 35°28' E 139°42'0 0.0
2018-Apr-19 17:28N 35°28' E 139°42'0 0.0
2018-Apr-19 16:58N 35°28' E 139°42'0 0.0
2018-Apr-19 16:28N 35°28' E 139°42'0 0.0
2018-Apr-19 15:58N 35°28' E 139°42'0 0.0
2018-Apr-19 15:28N 35°28' E 139°42'0 0.0
2018-Apr-19 14:58N 35°28' E 139°42'0 0.0
2018-Apr-19 14:28N 35°28' E 139°42'0 0.0
2018-Apr-19 13:58N 35°28' E 139°42'0 0.0
2018-Apr-19 13:28N 35°28' E 139°42'0 0.0
2018-Apr-19 12:58N 35°28' E 139°42'0 0.0
2018-Apr-19 12:28N 35°28' E 139°42'0 0.0
2018-Apr-19 11:58N 35°28' E 139°42'0 0.0
2018-Apr-19 11:28N 35°28' E 139°42'0 0.0
2018-Apr-19 10:58N 35°28' E 139°42'0 0.0
2018-Apr-19 10:28N 35°28' E 139°42'0 0.0
2018-Apr-19 09:58N 35°28' E 139°42'0 0.0
2018-Apr-19 09:28N 35°28' E 139°42'0 0.0
2018-Apr-19 08:58N 35°28' E 139°42'0 0.0
2018-Apr-19 08:28N 35°28' E 139°42'0 0.0
2018-Apr-19 07:58N 35°28' E 139°42'0 0.0
2018-Apr-19 07:28N 35°28' E 139°42'0 0.0
2018-Apr-19 06:58N 35°28' E 139°42'0 0.0
2018-Apr-19 06:28N 35°28' E 139°42'0 0.0
2018-Apr-19 05:58N 35°28' E 139°42'0 0.0
2018-Apr-19 05:28N 35°28' E 139°42'0 0.0
2018-Apr-19 04:58N 35°28' E 139°42'0 0.0
2018-Apr-19 04:28N 35°28' E 139°42'0 0.0
2018-Apr-19 03:58N 35°28' E 139°42'0 0.0
2018-Apr-19 03:28N 35°28' E 139°42'1 1.8
2018-Apr-19 03:00N 35°28' E 139°43'510.2
2018-Apr-19 02:30N 35°23' E 139°46'611.7
2018-Apr-19 02:00N 35°17' E 139°45'612.4
2018-Apr-19 01:30N 35°11' E 139°47'5 9.7
2018-Apr-19 01:00N 35°07' E 139°45'611.6
2018-Apr-19 00:30N 35°02' E 139°41'611.9
2018-Apr-19 00:01N 34°59' E 139°34'612.0
2018-Apr-18 23:30N 34°56' E 139°28'612.3
2018-Apr-18 23:00N 34°52' E 139°23'712.9
2018-Apr-18 22:30N 34°47' E 139°17'713.1
2018-Apr-18 21:59N 34°42' E 139°11'1012.5
2018-Apr-18 21:12N 34°35' E 139°03'312.4
2018-Apr-18 20:59N 34°33' E 139°01'612.4
2018-Apr-18 20:29N 34°29' E 138°55'712.6
2018-Apr-18 19:58N 34°29' E 138°47'612.6
2018-Apr-18 19:30N 34°29' E 138°40'712.5
2018-Apr-18 18:58N 34°29' E 138°32'612.8
2018-Apr-18 18:30N 34°29' E 138°25'712.6
2018-Apr-18 17:59N 34°29' E 138°17'612.5
2018-Apr-18 17:29N 34°29' E 138°09'712.3
2018-Apr-18 16:57N 34°29' E 138°01'712.4
2018-Apr-18 16:24N 34°28' E 137°53'612.5
2018-Apr-18 15:57N 34°28' E 137°46'712.6
2018-Apr-18 15:25N 34°28' E 137°38'3012.4
2018-Apr-18 13:01N 34°31' E 137°02'112.4
2018-Apr-18 12:58N 34°32' E 137°02'612.7
2018-Apr-18 12:28N 34°36' E 136°56'919.3
2018-Apr-18 12:00N 34°42' E 136°49'1019.5
2018-Apr-18 11:30N 34°52' E 136°46'816.5
2018-Apr-18 11:00N 34°59' E 136°49'2 4.2
2018-Apr-18 10:30N 35°02' E 136°49'0 0.0
2018-Apr-18 10:00N 35°02' E 136°49'0 0.0
2018-Apr-18 09:30N 35°02' E 136°49'0 0.0
2018-Apr-18 09:00N 35°02' E 136°49'0 0.0
2018-Apr-18 08:30N 35°02' E 136°49'0 0.0
2018-Apr-18 08:00N 35°02' E 136°49'0 0.0
2018-Apr-18 07:30N 35°02' E 136°49'0 0.0
2018-Apr-18 07:00N 35°02' E 136°49'0 0.0
2018-Apr-18 06:30N 35°02' E 136°49'0 0.0
2018-Apr-18 06:00N 35°02' E 136°49'0 0.0
2018-Apr-18 05:30N 35°02' E 136°49'0 0.0
2018-Apr-18 04:54N 35°02' E 136°49'0 0.1
2018-Apr-18 04:30N 35°02' E 136°49'1 2.2
2018-Apr-18 04:00N 35°01' E 136°50'511.1
2018-Apr-18 03:31N 34°56' E 136°47'714.4
2018-Apr-18 03:01N 34°49' E 136°47'815.9
2018-Apr-18 02:30N 34°41' E 136°51'815.8
2018-Apr-18 02:01N 34°36' E 136°58'713.3
2018-Apr-18 01:30N 34°31' E 137°03'611.1
2018-Apr-18 01:00N 34°25' E 137°04'2712.4
2018-Apr-17 22:47N 34°01' E 136°48'515.3
2018-Apr-17 22:29N 33°58' E 136°44'2215.3
2018-Apr-17 21:01N 33°43' E 136°24'414.5
2018-Apr-17 20:46N 33°41' E 136°20'414.7
2018-Apr-17 20:30N 33°38' E 136°17'5815.4
2018-Apr-17 16:44N 33°37' E 135°07'520.3
2018-Apr-17 16:30N 33°41' E 135°04'1020.8
2018-Apr-17 16:00N 33°51' E 134°59'1020.2
2018-Apr-17 15:30N 34°01' E 134°58'1019.0
2018-Apr-17 15:00N 34°10' E 134°57'815.9
2018-Apr-17 14:30N 34°18' E 134°58'918.2
2018-Apr-17 14:00N 34°26' E 135°05'1019.8
2018-Apr-17 13:30N 34°33' E 135°13'713.9
2018-Apr-17 13:00N 34°39' E 135°15'0 1.0
2018-Apr-17 12:30N 34°39' E 135°15'0 0.0
2018-Apr-17 11:57N 34°39' E 135°15'0 0.0
2018-Apr-17 11:27N 34°39' E 135°15'0 0.0
2018-Apr-17 11:00N 34°39' E 135°15'0 0.0
2018-Apr-17 10:30N 34°39' E 135°15'0 0.0
2018-Apr-17 10:00N 34°39' E 135°15'0 0.0
2018-Apr-17 09:30N 34°39' E 135°15'0 0.0
2018-Apr-17 09:00N 34°39' E 135°15'2 4.6
2018-Apr-17 08:31N 34°38' E 135°17'5 9.7
2018-Apr-17 08:01N 34°38' E 135°23'3 6.5
2018-Apr-17 07:30N 34°38' E 135°27'0 0.4
2018-Apr-17 06:57N 34°38' E 135°26'0 0.0
2018-Apr-17 06:27N 34°38' E 135°26'0 0.0
2018-Apr-17 05:57N 34°38' E 135°26'0 0.0
2018-Apr-17 05:30N 34°38' E 135°26'0 0.0
2018-Apr-17 04:57N 34°38' E 135°26'0 0.0
2018-Apr-17 04:27N 34°38' E 135°26'0 0.0
2018-Apr-17 03:57N 34°38' E 135°26'0 0.0
2018-Apr-17 03:27N 34°38' E 135°26'0 0.0
2018-Apr-17 02:57N 34°38' E 135°26'0 0.0
2018-Apr-17 02:30N 34°38' E 135°26'0 0.0
2018-Apr-17 02:00N 34°38' E 135°26'0 0.0
2018-Apr-17 01:30N 34°38' E 135°26'0 0.0
2018-Apr-17 01:00N 34°38' E 135°26'0 0.0
2018-Apr-17 00:30N 34°38' E 135°26'0 0.0
2018-Apr-17 00:00N 34°38' E 135°26'0 0.0
2018-Apr-16 23:30N 34°38' E 135°26'0 0.0
2018-Apr-16 23:00N 34°38' E 135°26'1 1.8
2018-Apr-16 22:30N 34°39' E 135°26'4 8.5
2018-Apr-16 22:00N 34°37' E 135°21'816.1
2018-Apr-16 21:30N 34°31' E 135°14'917.0
2018-Apr-16 21:00N 34°25' E 135°07'918.0
2018-Apr-16 20:30N 34°18' E 134°60'816.1
2018-Apr-16 20:00N 34°10' E 134°59'510.0
2018-Apr-16 19:30N 34°05' E 134°59'713.5
2018-Apr-16 19:00N 33°59' E 134°59'713.5
2018-Apr-16 18:30N 33°52' E 134°58'713.2
2018-Apr-16 17:59N 33°45' E 134°56'713.7
2018-Apr-16 17:30N 33°39' E 134°55'713.6
2018-Apr-16 17:01N 33°32' E 134°53'713.4
2018-Apr-16 16:30N 33°25' E 134°52'85920.9
2018-Apr-14 23:24N 25°29' E 121°10'819.3
2018-Apr-14 23:00N 25°25' E 121°03'1019.3
2018-Apr-14 22:30N 25°19' E 120°55'1419.6
2018-Apr-14 21:47N 25°09' E 120°43'14620.3
2018-Apr-14 14:34N 23°46' E 118°31'120.8
2018-Apr-14 14:30N 23°45' E 118°30'1020.8
2018-Apr-14 14:00N 23°38' E 118°22'1121.4
2018-Apr-14 13:30N 23°32' E 118°12'1121.4
2018-Apr-14 12:59N 23°25' E 118°03'1121.7
2018-Apr-14 12:30N 23°20' E 117°53'1121.5
2018-Apr-14 12:00N 23°12' E 117°45'1121.7
2018-Apr-14 11:30N 23°08' E 117°34'1121.4
2018-Apr-14 10:59N 23°03' E 117°23'1021.1
2018-Apr-14 10:30N 22°58' E 117°13'1020.9
2018-Apr-14 10:00N 22°52' E 117°04'1020.5
2018-Apr-14 09:30N 22°47' E 116°54'  
Track history (hours):
 
Tides and Currents Weather Stations Pressure Air Temp Water Temp Dewpoint Dewpoint Depression Visibility Wind Speed Wind Dir Waves Ship Positions

YM Etdr

Last reported at 2018-Apr-23 19:37 UTC. Time now 2018-Apr-24 14:45 UTC.
Position N 22°53' E 117°05'.

Length 269 m; draft 10 m.

Type: Cargo ship. MMSI: 635961358.

Date/timePositionNaut miles runAvg speedWind from/ knotsBaromVisibWave heightAir tempDewpointWater temp
2018-Apr-23 19:37N 22°53' E 117°05'215.4
2018-Apr-23 19:30N 22°54' E 117°06'815.5
2018-Apr-23 18:58N 22°58' E 117°14'715.4
2018-Apr-23 18:29N 23°02' E 117°21'715.5
2018-Apr-23 18:00N 23°06' E 117°28'1015.6
2018-Apr-23 17:22N 23°11' E 117°37'615.3
2018-Apr-23 17:00N 23°13' E 117°43'815.7
2018-Apr-23 16:30N 23°17' E 117°50'816.5
2018-Apr-23 16:00N 23°21' E 117°58'1018.9
2018-Apr-23 15:30N 23°28' E 118°05'1019.0
2018-Apr-23 15:00N 23°32' E 118°14'919.1
2018-Apr-23 14:30N 23°38' E 118°22'1019.2
2018-Apr-23 13:59N 23°44' E 118°32'919.1
2018-Apr-23 13:30N 23°50' E 118°39'918.7
2018-Apr-23 13:00N 23°55' E 118°47'918.1
2018-Apr-23 12:29N 24°00' E 118°56'918.0
2018-Apr-23 11:58N 24°06' E 119°04'1119.2
2018-Apr-23 11:25N 24°12' E 119°14'15119.1
2018-Apr-23 03:30N 25°40' E 121°29'1020.1
2018-Apr-23 03:00N 25°45' E 121°39'78118.5
2018-Apr-21 08:51N 32°27' E 134°26'617.3
2018-Apr-21 08:31N 32°30' E 134°32'917.2
2018-Apr-21 08:01N 32°34' E 134°41'11418.9
2018-Apr-21 01:58N 33°27' E 136°42'6020.0
2018-Apr-20 22:58N 33°55' E 137°45'1020.0
2018-Apr-20 22:29N 33°59' E 137°56'919.9
2018-Apr-20 22:00N 34°04' E 138°06'1019.8
2018-Apr-20 21:29N 34°08' E 138°17'919.4
2018-Apr-20 21:00N 34°12' E 138°27'1019.0
2018-Apr-20 20:28N 34°17' E 138°38'918.6
2018-Apr-20 20:00N 34°22' E 138°47'918.6
2018-Apr-20 19:30N 34°27' E 138°56'918.5
2018-Apr-20 19:00N 34°30' E 139°07'918.2
2018-Apr-20 18:30N 34°35' E 139°16'1018.2
2018-Apr-20 17:58N 34°38' E 139°27'919.0
2018-Apr-20 17:31N 34°45' E 139°34'1020.5
2018-Apr-20 17:00N 34°55' E 139°38'1020.2
2018-Apr-20 16:30N 35°04' E 139°44'816.6
2018-Apr-20 16:00N 35°12' E 139°46'611.4
2018-Apr-20 15:30N 35°17' E 139°45'612.4
2018-Apr-20 15:01N 35°23' E 139°42'815.6
2018-Apr-20 14:30N 35°29' E 139°50'612.7
2018-Apr-20 14:00N 35°35' E 139°48'2 3.5
2018-Apr-20 13:27N 35°37' E 139°47'0 0.0
2018-Apr-20 12:58N 35°37' E 139°47'0 0.0
2018-Apr-20 12:19N 35°37' E 139°47'0 0.0
2018-Apr-20 11:58N 35°37' E 139°47'0 0.0
2018-Apr-20 11:28N 35°37' E 139°47'0 0.0
2018-Apr-20 10:58N 35°37' E 139°47'0 0.0
2018-Apr-20 10:28N 35°37' E 139°47'0 0.0
2018-Apr-20 09:58N 35°37' E 139°47'0 0.0
2018-Apr-20 09:28N 35°37' E 139°47'0 0.0
2018-Apr-20 08:58N 35°37' E 139°47'0 0.0
2018-Apr-20 08:28N 35°37' E 139°47'0 0.0
2018-Apr-20 07:58N 35°37' E 139°47'0 0.0
2018-Apr-20 07:28N 35°37' E 139°47'0 0.0
2018-Apr-20 06:58N 35°37' E 139°47'0 0.0
2018-Apr-20 06:25N 35°37' E 139°47'0 0.0
2018-Apr-20 05:58N 35°37' E 139°47'0 0.0
2018-Apr-20 05:28N 35°37' E 139°47'0 0.0
2018-Apr-20 04:58N 35°37' E 139°47'0 0.0
2018-Apr-20 04:28N 35°37' E 139°47'0 0.0
2018-Apr-20 03:52N 35°37' E 139°47'0 0.0
2018-Apr-20 03:28N 35°37' E 139°47'0 0.0
2018-Apr-20 02:58N 35°37' E 139°47'0 0.1
2018-Apr-20 02:28N 35°37' E 139°47'0 0.1
2018-Apr-20 01:58N 35°37' E 139°47'0 0.0
2018-Apr-20 01:28N 35°37' E 139°47'0 0.0
2018-Apr-20 00:58N 35°37' E 139°47'0 0.0
2018-Apr-20 00:28N 35°37' E 139°47'0 0.0
2018-Apr-19 23:58N 35°37' E 139°47'0 0.0
2018-Apr-19 23:25N 35°37' E 139°47'0 0.0
2018-Apr-19 22:55N 35°37' E 139°47'0 0.0
2018-Apr-19 22:30N 35°37' E 139°47'2 4.7
2018-Apr-19 22:00N 35°35' E 139°48'510.6
2018-Apr-19 21:30N 35°30' E 139°52'510.3
2018-Apr-19 21:00N 35°27' E 139°47'4 9.0
2018-Apr-19 20:30N 35°28' E 139°42'0 0.9
2018-Apr-19 19:58N 35°28' E 139°42'0 0.0
2018-Apr-19 19:28N 35°28' E 139°42'0 0.0
2018-Apr-19 18:58N 35°28' E 139°42'0 0.0
2018-Apr-19 18:28N 35°28' E 139°42'0 0.0
2018-Apr-19 17:58N 35°28' E 139°42'0 0.0
2018-Apr-19 17:28N 35°28' E 139°42'0 0.0
2018-Apr-19 16:58N 35°28' E 139°42'0 0.0
2018-Apr-19 16:28N 35°28' E 139°42'0 0.0
2018-Apr-19 15:58N 35°28' E 139°42'0 0.0
2018-Apr-19 15:28N 35°28' E 139°42'0 0.0
2018-Apr-19 14:58N 35°28' E 139°42'0 0.0
2018-Apr-19 14:28N 35°28' E 139°42'0 0.0
2018-Apr-19 13:58N 35°28' E 139°42'0 0.0
2018-Apr-19 13:28N 35°28' E 139°42'0 0.0
2018-Apr-19 12:58N 35°28' E 139°42'0 0.0
2018-Apr-19 12:28N 35°28' E 139°42'0 0.0
2018-Apr-19 11:58N 35°28' E 139°42'0 0.0
2018-Apr-19 11:28N 35°28' E 139°42'0 0.0
2018-Apr-19 10:58N 35°28' E 139°42'0 0.0
2018-Apr-19 10:28N 35°28' E 139°42'0 0.0
2018-Apr-19 09:58N 35°28' E 139°42'0 0.0
2018-Apr-19 09:28N 35°28' E 139°42'0 0.0
2018-Apr-19 08:58N 35°28' E 139°42'0 0.0
2018-Apr-19 08:28N 35°28' E 139°42'0 0.0
2018-Apr-19 07:58N 35°28' E 139°42'0 0.0
2018-Apr-19 07:28N 35°28' E 139°42'0 0.0
2018-Apr-19 06:58N 35°28' E 139°42'0 0.0
2018-Apr-19 06:28N 35°28' E 139°42'0 0.0
2018-Apr-19 05:58N 35°28' E 139°42'0 0.0
2018-Apr-19 05:28N 35°28' E 139°42'0 0.0
2018-Apr-19 04:58N 35°28' E 139°42'0 0.0
2018-Apr-19 04:28N 35°28' E 139°42'0 0.0
2018-Apr-19 03:58N 35°28' E 139°42'0 0.0
2018-Apr-19 03:28N 35°28' E 139°42'1 1.8
2018-Apr-19 03:00N 35°28' E 139°43'510.2
2018-Apr-19 02:30N 35°23' E 139°46'611.7
2018-Apr-19 02:00N 35°17' E 139°45'612.4
2018-Apr-19 01:30N 35°11' E 139°47'5 9.7
2018-Apr-19 01:00N 35°07' E 139°45'611.6
2018-Apr-19 00:30N 35°02' E 139°41'611.9
2018-Apr-19 00:01N 34°59' E 139°34'612.0
2018-Apr-18 23:30N 34°56' E 139°28'612.3
2018-Apr-18 23:00N 34°52' E 139°23'712.9
2018-Apr-18 22:30N 34°47' E 139°17'713.1
2018-Apr-18 21:59N 34°42' E 139°11'1012.5
2018-Apr-18 21:12N 34°35' E 139°03'312.4
2018-Apr-18 20:59N 34°33' E 139°01'612.4
2018-Apr-18 20:29N 34°29' E 138°55'712.6
2018-Apr-18 19:58N 34°29' E 138°47'612.6
2018-Apr-18 19:30N 34°29' E 138°40'712.5
2018-Apr-18 18:58N 34°29' E 138°32'612.8
2018-Apr-18 18:30N 34°29' E 138°25'712.6
2018-Apr-18 17:59N 34°29' E 138°17'612.5
2018-Apr-18 17:29N 34°29' E 138°09'712.3
2018-Apr-18 16:57N 34°29' E 138°01'712.4
2018-Apr-18 16:24N 34°28' E 137°53'612.5
2018-Apr-18 15:57N 34°28' E 137°46'712.6
2018-Apr-18 15:25N 34°28' E 137°38'3012.4
2018-Apr-18 13:01N 34°31' E 137°02'112.4
2018-Apr-18 12:58N 34°32' E 137°02'612.7
2018-Apr-18 12:28N 34°36' E 136°56'919.3
2018-Apr-18 12:00N 34°42' E 136°49'1019.5
2018-Apr-18 11:30N 34°52' E 136°46'816.5
2018-Apr-18 11:00N 34°59' E 136°49'2 4.2
2018-Apr-18 10:30N 35°02' E 136°49'0 0.0
2018-Apr-18 10:00N 35°02' E 136°49'0 0.0
2018-Apr-18 09:30N 35°02' E 136°49'0 0.0
2018-Apr-18 09:00N 35°02' E 136°49'0 0.0
2018-Apr-18 08:30N 35°02' E 136°49'0 0.0
2018-Apr-18 08:00N 35°02' E 136°49'0 0.0
2018-Apr-18 07:30N 35°02' E 136°49'0 0.0
2018-Apr-18 07:00N 35°02' E 136°49'0 0.0
2018-Apr-18 06:30N 35°02' E 136°49'0 0.0
2018-Apr-18 06:00N 35°02' E 136°49'0 0.0
2018-Apr-18 05:30N 35°02' E 136°49'0 0.0
2018-Apr-18 04:54N 35°02' E 136°49'0 0.1
2018-Apr-18 04:30N 35°02' E 136°49'1 2.2
2018-Apr-18 04:00N 35°01' E 136°50'511.1
2018-Apr-18 03:31N 34°56' E 136°47'714.4
2018-Apr-18 03:01N 34°49' E 136°47'815.9
2018-Apr-18 02:30N 34°41' E 136°51'815.8
2018-Apr-18 02:01N 34°36' E 136°58'713.3
2018-Apr-18 01:30N 34°31' E 137°03'611.1
2018-Apr-18 01:00N 34°25' E 137°04'2712.4
2018-Apr-17 22:47N 34°01' E 136°48'515.3
2018-Apr-17 22:29N 33°58' E 136°44'2215.3
2018-Apr-17 21:01N 33°43' E 136°24'414.5
2018-Apr-17 20:46N 33°41' E 136°20'414.7
2018-Apr-17 20:30N 33°38' E 136°17'5815.4
2018-Apr-17 16:44N 33°37' E 135°07'520.3
2018-Apr-17 16:30N 33°41' E 135°04'1020.8
2018-Apr-17 16:00N 33°51' E 134°59'1020.2
2018-Apr-17 15:30N 34°01' E 134°58'1019.0
2018-Apr-17 15:00N 34°10' E 134°57'815.9
2018-Apr-17 14:30N 34°18' E 134°58'918.2
2018-Apr-17 14:00N 34°26' E 135°05'1019.8
2018-Apr-17 13:30N 34°33' E 135°13'713.9
2018-Apr-17 13:00N 34°39' E 135°15'0 1.0
2018-Apr-17 12:30N 34°39' E 135°15'0 0.0
2018-Apr-17 11:57N 34°39' E 135°15'0 0.0
2018-Apr-17 11:27N 34°39' E 135°15'0 0.0
2018-Apr-17 11:00N 34°39' E 135°15'0 0.0
2018-Apr-17 10:30N 34°39' E 135°15'0 0.0
2018-Apr-17 10:00N 34°39' E 135°15'0 0.0
2018-Apr-17 09:30N 34°39' E 135°15'0 0.0
2018-Apr-17 09:00N 34°39' E 135°15'2 4.6
2018-Apr-17 08:31N 34°38' E 135°17'5 9.7
2018-Apr-17 08:01N 34°38' E 135°23'3 6.5
2018-Apr-17 07:30N 34°38' E 135°27'0 0.4
2018-Apr-17 06:57N 34°38' E 135°26'0 0.0
2018-Apr-17 06:27N 34°38' E 135°26'0 0.0
2018-Apr-17 05:57N 34°38' E 135°26'0 0.0
2018-Apr-17 05:30N 34°38' E 135°26'0 0.0
2018-Apr-17 04:57N 34°38' E 135°26'0 0.0
2018-Apr-17 04:27N 34°38' E 135°26'0 0.0
2018-Apr-17 03:57N 34°38' E 135°26'0 0.0
2018-Apr-17 03:27N 34°38' E 135°26'0 0.0
2018-Apr-17 02:57N 34°38' E 135°26'0 0.0
2018-Apr-17 02:30N 34°38' E 135°26'0 0.0
2018-Apr-17 02:00N 34°38' E 135°26'0 0.0
2018-Apr-17 01:30N 34°38' E 135°26'0 0.0
2018-Apr-17 01:00N 34°38' E 135°26'0 0.0
2018-Apr-17 00:30N 34°38' E 135°26'0 0.0
2018-Apr-17 00:00N 34°38' E 135°26'0 0.0
2018-Apr-16 23:30N 34°38' E 135°26'0 0.0
2018-Apr-16 23:00N 34°38' E 135°26'1 1.8
2018-Apr-16 22:30N 34°39' E 135°26'4 8.5
2018-Apr-16 22:00N 34°37' E 135°21'816.1
2018-Apr-16 21:30N 34°31' E 135°14'917.0
2018-Apr-16 21:00N 34°25' E 135°07'918.0
2018-Apr-16 20:30N 34°18' E 134°60'816.1
2018-Apr-16 20:00N 34°10' E 134°59'510.0
2018-Apr-16 19:30N 34°05' E 134°59'713.5
2018-Apr-16 19:00N 33°59' E 134°59'713.5
2018-Apr-16 18:30N 33°52' E 134°58'713.2
2018-Apr-16 17:59N 33°45' E 134°56'713.7
2018-Apr-16 17:30N 33°39' E 134°55'713.6
2018-Apr-16 17:01N 33°32' E 134°53'713.4
2018-Apr-16 16:30N 33°25' E 134°52'85920.9
2018-Apr-14 23:24N 25°29' E 121°10'819.3
2018-Apr-14 23:00N 25°25' E 121°03'1019.3
2018-Apr-14 22:30N 25°19' E 120°55'1419.6
2018-Apr-14 21:47N 25°09' E 120°43'14620.3
2018-Apr-14 14:34N 23°46' E 118°31'120.8
2018-Apr-14 14:30N 23°45' E 118°30'1020.8
2018-Apr-14 14:00N 23°38' E 118°22'1121.4
2018-Apr-14 13:30N 23°32' E 118°12'1121.4
2018-Apr-14 12:59N 23°25' E 118°03'1121.7
2018-Apr-14 12:30N 23°20' E 117°53'1121.5
2018-Apr-14 12:00N 23°12' E 117°45'1121.7
2018-Apr-14 11:30N 23°08' E 117°34'1121.4
2018-Apr-14 10:59N 23°03' E 117°23'1021.1
2018-Apr-14 10:30N 22°58' E 117°13'1020.9
2018-Apr-14 10:00N 22°52' E 117°04'1020.5
2018-Apr-14 09:30N 22°47' E 116°54'  

Dump ship's entire track history